Stations météo

réclame
Mon MeteoGroup
La Hoya, Espagne (8205): Température de l'air & dewpoint: 13.10.2017 05:00:00 - 19.10.2017 05:00:00 (CEST)La Hoya, Espagne (8205): Vitesse du vent & gusts: 13.10.2017 05:00:00 - 19.10.2017 05:00:00 (CEST)La Hoya, Espagne (8205): Direction du vent: 13.10.2017 05:00:00 - 19.10.2017 05:00:00 (CEST)La Hoya, Espagne (8205): visibility: 13.10.2017 05:00:00 - 19.10.2017 05:00:00 (CEST)La Hoya, Espagne (8205): Ensoleillement: 13.10.2017 05:00:00 - 19.10.2017 05:00:00 (CEST)La Hoya, Espagne (8205): Quantités de précipitations: 13.10.2017 05:00:00 - 19.10.2017 05:00:00 (CEST)
Date & Time tt [°C] td [°C] ff [km/h] ff [knt] fx [km/h] fx [knt] dd vv [km] sd [min] rr [mm]
19.10.2017 05:00:00 - - - - - - - - - -
19.10.2017 04:00:00 1,0 0,0 16 9 23 12 WSW 20 0 0,0
19.10.2017 03:00:00 1,7 1,1 14 8 19 11 WSW 20 0 0,0
19.10.2017 02:00:00 1,1 0,9 9 5 15 8 WSW 13 9 -
19.10.2017 01:00:00 1,2 0,9 10 5 23 12 WSW 20 60 0,0
19.10.2017 00:00:00 2,2 2,1 11 6 20 11 WSW 0,5 60 0,0
18.10.2017 23:00:00 2,1 1,9 11 6 29 16 W 1,3 60 0,0
18.10.2017 22:00:00 2,1 1,9 17 9 29 16 WSW 20 60 0,0
18.10.2017 21:00:00 2,2 2,1 16 9 30 16 W 0,5 28 0,0
18.10.2017 20:00:00 2,0 1,7 20 11 35 19 WSW 20 0 -
18.10.2017 19:00:00 2,3 2,1 19 10 32 17 WSW 20 0 0,0
18.10.2017 18:00:00 2,3 2,1 18 10 37 20 WSW 18 30 0,2
18.10.2017 17:00:00 1,9 1,7 24 13 37 20 WSW 20 60 0,0
18.10.2017 16:00:00 2,0 1,9 26 14 43 23 WSW 20 60 0,6
18.10.2017 15:00:00 1,2 1,3 24 13 44 24 WSW 0,5 52 3,2
18.10.2017 14:00:00 3,6 2,5 23 13 47 25 WSW 20 19 -
18.10.2017 13:00:00 3,9 3,2 26 14 40 22 WSW 20 60 0,2
18.10.2017 12:00:00 3,0 2,5 27 15 46 25 WSW 16 60 0,0
18.10.2017 11:00:00 3,0 2,9 34 19 53 29 WSW 0,6 60 0,0
18.10.2017 10:00:00 3,0 2,7 26 14 47 25 WSW 0,4 60 0,2
18.10.2017 09:00:00 - - - - - - - - - -
18.10.2017 08:00:00 - - - - - - - - - -
18.10.2017 07:00:00 - - - - - - - - - -
18.10.2017 06:00:00 - - - - - - - - - -
18.10.2017 05:00:00 - - - - - - - - - -
18.10.2017 04:00:00 - - - - - - - - - -
18.10.2017 03:00:00 - - - - - - - - - -
18.10.2017 02:00:00 - - - - - - - - - -
18.10.2017 01:00:00 - - - - - - - - - -
18.10.2017 00:00:00 - - - - - - - - - -
17.10.2017 23:00:00 - - - - - - - - - -
17.10.2017 22:00:00 - - - - - - - - - -
17.10.2017 21:00:00 - - - - - - - - - -
17.10.2017 20:00:00 - - - - - - - - - -
17.10.2017 19:00:00 - - - - - - - - - -
17.10.2017 18:00:00 - - - - - - - - - -
17.10.2017 17:00:00 - - - - - - - - - -
17.10.2017 16:00:00 - - - - - - - - - -
17.10.2017 15:00:00 - - - - - - - - - -
17.10.2017 14:00:00 - - - - - - - - - -
17.10.2017 13:00:00 - - - - - - - - - -
17.10.2017 12:00:00 - - - - - - - - - -
17.10.2017 11:00:00 - - - - - - - - - -
17.10.2017 10:00:00 - - - - - - - - - -
17.10.2017 09:00:00 - - - - - - - - - -
17.10.2017 08:00:00 - - - - - - - - - -
17.10.2017 07:00:00 - - - - - - - - - -
17.10.2017 06:00:00 - - - - - - - - - -
17.10.2017 05:00:00 - - - - - - - - - -
17.10.2017 04:00:00 - - - - - - - - - -
17.10.2017 03:00:00 - - - - - - - - - -
17.10.2017 02:00:00 - - - - - - - - - -
17.10.2017 01:00:00 - - - - - - - - - -
17.10.2017 00:00:00 - - - - - - - - - -
16.10.2017 23:00:00 - - - - - - - - - -
16.10.2017 22:00:00 - - - - - - - - - -
16.10.2017 21:00:00 - - - - - - - - - -
16.10.2017 20:00:00 - - - - - - - - - -
16.10.2017 19:00:00 - - - - - - - - - -
16.10.2017 18:00:00 - - - - - - - - - -
16.10.2017 17:00:00 - - - - - - - - - -
16.10.2017 16:00:00 - - - - - - - - - -
16.10.2017 15:00:00 - - - - - - - - - -
16.10.2017 14:00:00 - - - - - - - - - -
16.10.2017 13:00:00 15,2 -3,6 25 13 51 28 S 20 0 0,0
16.10.2017 12:00:00 15,0 -2,5 31 17 56 30 S 20 0 0,0
16.10.2017 11:00:00 14,3 -2,7 32 17 58 32 S 20 0 0,0
16.10.2017 10:00:00 12,3 -2,7 26 14 49 26 S 20 0 0,0
16.10.2017 09:00:00 10,7 -1,4 21 11 38 21 SW 20 0 0,0
16.10.2017 08:00:00 10,7 -1,7 25 14 53 29 SW 20 0 -
16.10.2017 07:00:00 11,2 -3,9 23 12 46 25 S 20 0 0,0
16.10.2017 06:00:00 11,6 -0,5 22 12 45 24 SSW 20 0 0,0
16.10.2017 05:00:00 11,7 0,9 25 14 44 24 SSW 20 0 0,0
16.10.2017 04:00:00 12,6 0,4 30 16 44 24 SW 20 0 0,0
16.10.2017 03:00:00 12,7 0,6 23 12 40 22 SSW 20 0 0,0
16.10.2017 02:00:00 12,4 0,9 16 8 29 15 SW 20 0 -
16.10.2017 01:00:00 12,2 2,1 14 7 33 18 SW 20 0 0,0
16.10.2017 00:00:00 13,8 2,1 11 6 38 21 SSW 20 0 0,0
15.10.2017 23:00:00 14,1 1,7 12 7 37 20 S 20 0 0,0
15.10.2017 22:00:00 14,4 1,3 19 11 43 23 S 20 0 0,0
15.10.2017 21:00:00 14,6 2,9 22 12 44 24 S 20 0 0,0
15.10.2017 20:00:00 14,8 3,0 13 7 40 21 S 20 0 -
15.10.2017 19:00:00 16,1 2,1 13 7 30 16 S 20 0 0,0
15.10.2017 18:00:00 17,5 1,1 16 9 36 19 S 20 0 0,0
15.10.2017 17:00:00 18,1 1,1 14 8 41 22 S 20 0 0,0
15.10.2017 16:00:00 17,9 1,5 19 11 41 22 SSE 20 0 0,0
15.10.2017 15:00:00 19,0 1,5 16 8 36 19 SSE 20 0 0,0
15.10.2017 14:00:00 18,5 1,1 18 10 39 21 SSE 20 0 -
15.10.2017 13:00:00 18,4 1,5 16 8 34 19 SSE 20 0 0,0
15.10.2017 12:00:00 17,5 1,9 14 8 34 18 SSE 20 0 0,0
15.10.2017 11:00:00 17,6 1,5 14 8 24 13 SE 20 0 0,0
15.10.2017 10:00:00 13,1 4,3 14 7 20 11 SSE 20 0 0,0
15.10.2017 09:00:00 12,2 4,5 14 7 35 19 SSE 20 0 0,0
15.10.2017 08:00:00 13,3 2,9 18 10 35 19 S 20 0 -
15.10.2017 07:00:00 13,3 2,9 20 11 31 17 S 20 0 0,0
15.10.2017 06:00:00 13,2 3,2 14 8 54 29 SSE 20 0 0,4
15.10.2017 05:00:00 14,1 3,2 36 20 51 28 SW 16 0 0,0
15.10.2017 04:00:00 13,8 3,2 7 4 40 21 W 20 0 0,0
15.10.2017 03:00:00 15,4 1,9 21 12 32 18 SSW 20 0 0,0
15.10.2017 02:00:00 15,5 -0,3 21 12 36 19 SW 20 0 -
15.10.2017 01:00:00 15,4 0,0 21 11 29 15 SW 20 0 0,0
15.10.2017 00:00:00 15,3 -0,5 17 9 30 16 SW 20 0 0,0
14.10.2017 23:00:00 14,9 0,4 18 10 31 17 SW 20 0 0,0
14.10.2017 22:00:00 15,5 0,4 19 10 39 21 SW 20 0 0,0
14.10.2017 21:00:00 15,7 -1,0 21 11 36 19 SW 20 0 0,0
14.10.2017 20:00:00 15,8 -1,0 20 11 33 18 SW 20 0 -
14.10.2017 19:00:00 16,5 -0,3 17 9 32 18 WSW 20 0 0,0
14.10.2017 18:00:00 17,1 -0,3 20 11 36 20 WSW 20 0 0,0
14.10.2017 17:00:00 17,9 0,0 21 12 34 19 W 20 0 0,0
14.10.2017 16:00:00 18,1 -0,3 19 10 39 21 W 20 0 0,0
14.10.2017 15:00:00 18,9 0,0 21 11 38 21 W 20 0 0,0
14.10.2017 14:00:00 18,8 0,9 21 12 38 20 WSW 20 0 -
14.10.2017 13:00:00 18,4 0,0 21 12 37 20 WSW 20 0 0,0
14.10.2017 12:00:00 15,1 -0,3 23 13 40 22 WSW 20 0 0,0
14.10.2017 11:00:00 15,3 -0,5 24 13 37 20 WSW 20 0 0,0
14.10.2017 10:00:00 14,9 -0,5 19 11 40 22 WSW 20 0 0,0
14.10.2017 09:00:00 14,3 -1,4 23 12 36 19 SW 20 0 0,0
14.10.2017 08:00:00 14,0 -3,0 20 11 39 21 WSW 20 0 -
14.10.2017 07:00:00 14,3 -3,9 22 12 40 22 WSW 20 0 0,0
14.10.2017 06:00:00 14,2 -8,6 27 15 41 22 WSW 20 0 0,0
14.10.2017 05:00:00 13,9 -9,4 22 12 36 19 SW 20 0 0,0
14.10.2017 04:00:00 13,8 -9,0 22 12 33 18 SW 20 0 0,0
14.10.2017 03:00:00 13,9 -8,2 19 10 29 16 SW 20 0 0,0
14.10.2017 02:00:00 13,4 -7,5 20 11 29 15 SW 20 0 -
14.10.2017 01:00:00 12,7 -6,7 18 10 27 14 SW 20 0 0,0
14.10.2017 00:00:00 12,5 -8,6 22 12 29 15 SW 20 0 0,0
13.10.2017 23:00:00 13,1 -9,9 22 12 28 15 SSW 20 0 0,0
13.10.2017 22:00:00 12,5 -9,9 20 11 28 15 SW 20 0 0,0
13.10.2017 21:00:00 13,4 -9,9 18 10 33 18 SW 20 0 0,0
13.10.2017 20:00:00 14,6 -9,4 21 11 35 19 WSW 20 0 -
13.10.2017 19:00:00 14,4 4,1 13 7 25 13 W 20 0 0,0
13.10.2017 18:00:00 16,4 2,7 16 9 26 14 W 20 0 0,0
13.10.2017 17:00:00 17,1 1,1 14 8 25 13 W 20 0 0,0
13.10.2017 16:00:00 17,4 2,9 9 5 21 11 W 20 0 0,0
13.10.2017 15:00:00 17,4 3,2 8 5 24 13 N 20 0 0,0
13.10.2017 14:00:00 17,7 4,3 8 4 18 10 W 20 0 -
13.10.2017 13:00:00 17,1 4,1 6 4 14 8 WNW 20 0 0,0
13.10.2017 12:00:00 17,3 3,2 8 4 19 10 NNE 20 0 0,0
13.10.2017 11:00:00 17,2 -8,2 12 6 26 14 SW 20 0 0,0
13.10.2017 10:00:00 15,4 -7,5 14 8 29 16 WSW 20 0 0,0
13.10.2017 09:00:00 12,8 -7,8 16 9 30 16 WSW 20 0 0,0
13.10.2017 08:00:00 8,3 -2,2 5 3 10 5 SW 20 0 -
13.10.2017 07:00:00 8,7 -1,4 4 2 10 5 SE 20 0 0,0
13.10.2017 06:00:00 11,0 -0,7 9 5 36 19 W 20 0 0,0
13.10.2017 05:00:00 12,2 3,4 22 12 48 26 SSW 20 0 0,0

tt = Température de l'air
td = dewpoint
ff = Vitesse du vent
fx = gusts
dd = Direction du vent
vv = visibility
sd = Ensoleillement
rr = Quantités de précipitations

stations d'obs. à proximité